EDFH 200020Z 10004KT 040V200 9999 -TSRA FEW030 BKN050CB 15/14 Q1023 RERA EDFH 192350Z 12004KT 9999 -RA FEW030 BKN050 16/14 Q1022 EDFH 192320Z 11003KT 080V170 9999 -RA FEW030 BKN050 16/14 Q1022 EDFH 192250Z 11003KT 060V170 CAVOK 16/14 Q1022 EDFH 192220Z 12004KT 090V160 CAVOK 16/14 Q1023 EDFH 192150Z 12003KT 070V150 CAVOK 15/14 Q1023 EDFH 192120Z 13004KT CAVOK 16/13 Q1022 EDFH 192050Z VRB02KT CAVOK 15/13 Q1022 EDFH 192020Z 12003KT CAVOK 16/13 Q1022 EDFH 191950Z VRB02KT CAVOK 15/14 Q1022 EDFH 191920Z VRB02KT CAVOK 16/15 Q1022 EDFH 191850Z 07003KT 010V140 CAVOK 17/15 Q1022 EDFH 191820Z VRB02KT CAVOK 18/15 Q1021 EDFH 191750Z VRB02KT CAVOK 18/16 Q1022 EDFH 191720Z VRB02KT 9999 FEW050TCU 18/16 Q1021 EDFH 191650Z 11004KT 060V180 9999 SCT048 17/16 Q1021 EDFH 191620Z VRB05KT 9999 VCTS FEW002 SCT036CB 17/16 Q1021 RESHRA EDFH 191550Z 33009KT 270V360 8000 VCTS SHRA BKN032CB 17/16 Q1021 EDFH 191520Z VRB12KT 9999 VCTS SCT039CB 21/17 Q1020 RESHRA EDFH 191450Z 20008G18KT 170V250 9999 VCTS SHRA BKN040CB 25/16 Q1019 EDFH 191420Z 22012KT 190V270 9999 FEW048 26/16 Q1019 EDFH 191350Z 22009KT 190V260 CAVOK 26/16 Q1019 EDFH 191320Z 22010KT 180V270 CAVOK 26/16 Q1019 EDFH 191250Z 23011KT 190V280 9999 FEW048 27/16 Q1020 EDFH 191220Z 19011KT 150V210 CAVOK 26/16 Q1020 EDFH 191150Z 16010KT 120V210 CAVOK 26/16 Q1020 EDFH 191120Z 16007KT 120V190 CAVOK 25/16 Q1020 EDFH 191050Z 17008KT 130V200 CAVOK 25/15 Q1020 EDFH 191020Z 14009KT 090V180 CAVOK 25/15 Q1020 EDFH 190950Z 16006KT 120V190 CAVOK 24/15 Q1020 EDFH 190920Z 14011G21KT CAVOK 23/15 Q1020 EDFH 190850Z 12005KT 060V170 CAVOK 21/14 Q1020 EDFH 190820Z 14012KT CAVOK 21/13 Q1020 EDFH 190750Z 12007KT 080V160 CAVOK 20/13 Q1020 EDFH 190720Z 15013KT CAVOK 19/12 Q1020 EDFH 190650Z 14013KT CAVOK 18/12 Q1020 EDFH 190620Z 14012KT CAVOK 18/12 Q1020 EDFH 190550Z 14012KT CAVOK 17/12 Q1020 EDFH 190520Z 14011KT CAVOK 16/11 Q1020 EDFH 190450Z 14011KT CAVOK 16/11 Q1020 EDFH 190420Z 14010KT CAVOK 15/11 Q1020 EDFH 190350Z 14010KT CAVOK 16/11 Q1020 EDFH 190320Z 14011KT CAVOK 17/11 Q1020 EDFH 190250Z 15010KT CAVOK 16/11 Q1020 EDFH 190220Z 14009KT CAVOK 16/11 Q1020 EDFH 190150Z 13009KT CAVOK 17/11 Q1020 EDFH 190120Z 14009KT CAVOK 17/11 Q1020 EDFH 190050Z 14009KT CAVOK 17/11 Q1020 EDFH 190020Z 14009KT CAVOK 17/11 Q1021 EDFH 182350Z 13009KT CAVOK 17/10 Q1021 EDFH 182320Z 13008KT CAVOK 18/10 Q1021 EDFH 182250Z 13009KT CAVOK 19/10 Q1021 EDFH 182220Z 14008KT CAVOK 19/10 Q1021 EDFH 182150Z 14007KT CAVOK 19/10 Q1021 EDFH 182120Z VRB02KT CAVOK 19/10 Q1021 EDFH 182050Z 14006KT CAVOK 19/10 Q1021 EDFH 182020Z 14006KT CAVOK 20/10 Q1021 EDFH 181950Z 12007KT 100V170 CAVOK 21/10 Q1022 EDFH 181920Z 12007KT CAVOK 21/10 Q1021 EDFH 181850Z 11007KT 080V140 CAVOK 22/11 Q1021 EDFH 181820Z 11007KT CAVOK 23/11 Q1021 EDFH 181750Z 12007KT CAVOK 24/11 Q1021 EDFH 181720Z 13007KT CAVOK 24/11 Q1021 EDFH 181650Z 12007KT CAVOK 25/12 Q1022 EDFH 181620Z 14008KT 100V160 CAVOK 25/12 Q1022 EDFH 181550Z 13007KT CAVOK 25/12 Q1022 EDFH 181520Z 13007KT 070V170 CAVOK 26/12 Q1022 EDFH 181450Z 13006KT 090V200 CAVOK 26/11 Q1022 EDFH 181420Z 15006KT 080V210 CAVOK 26/11 Q1022 EDFH 181350Z VRB05KT CAVOK 25/11 Q1022 EDFH 181320Z 15006KT 110V200 CAVOK 25/12 Q1022 EDFH 181250Z 12010KT 030V180 CAVOK 25/12 Q1023

METAR Messwerte "HAHN" EDFH

Zurück zur Übersicht

Ortsname
Ländercode / m ü. NN
Zeit Temperatur Taupunkt Rel.
Luftfeuchte
Luftdruck:
Altimeter
NN
Station
Wind in Beaufort
(Knoten)
Sichtweite
(Meter)
Wolken
(Meter über Grund)
Wettererscheinung
HAHN
DE 494
Fr 20.05. 02:20151494 %1023
1023
965
O 2 (4)
NO - SSW
>= 10000Stark bewölkt Cb (1500)
Leicht bewölkt (910)
Gewitter mit Regen (schwach)
HAHN
DE 494
Fr 20.05. 01:50161488 %1022
1022
964
OSO 2 (4)>= 10000Stark bewölkt (1500)
Leicht bewölkt (910)
Regen (schwach)
HAHN
DE 494
Fr 20.05. 01:20161488 %1022
1022
964
OSO 2 (3)
O - S
>= 10000Stark bewölkt (1500)
Leicht bewölkt (910)
Regen (schwach)
HAHN
DE 494
Fr 20.05. 00:50161488 %1022
1022
964
OSO 2 (3)
ONO - S
>= 10000Nicht signifikant 
HAHN
DE 494
Fr 20.05. 00:20161488 %1023
1023
965
OSO 2 (4)
O - SSO
>= 10000Nicht signifikant 
HAHN
DE 494
Do 19.05. 23:50151494 %1023
1023
965
OSO 2 (3)
ONO - SSO
>= 10000Nicht signifikant 
HAHN
DE 494
Do 19.05. 23:20161382 %1022
1022
964
SO 2 (4)>= 10000Nicht signifikant 
HAHN
DE 494
Do 19.05. 22:50151388 %1022
1022
964
Uml 1 (2)>= 10000Nicht signifikant 
HAHN
DE 494
Do 19.05. 22:20161382 %1022
1022
964
OSO 2 (3)>= 10000Nicht signifikant 
HAHN
DE 494
Do 19.05. 21:50151494 %1022
1022
964
Uml 1 (2)>= 10000Nicht signifikant 
HAHN
DE 494
Do 19.05. 21:20161594 %1022
1022
964
Uml 1 (2)>= 10000Nicht signifikant 
HAHN
DE 494
Do 19.05. 20:50171588 %1022
1022
964
ONO 2 (3)
N - SO
>= 10000Nicht signifikant 
HAHN
DE 494
Do 19.05. 20:20181583 %1021
1020
963
Uml 1 (2)>= 10000Nicht signifikant 
HAHN
DE 494
Do 19.05. 19:50181688 %1022
1021
964
Uml 1 (2)>= 10000Nicht signifikant 
HAHN
DE 494
Do 19.05. 19:20181688 %1021
1020
963
Uml 1 (2)>= 10000Leicht bewölkt (1500) 
HAHN
DE 494
Do 19.05. 18:50171694 %1021
1021
963
OSO 2 (4)
ONO - S
>= 10000Wolkig (1500) 
HAHN
DE 494
Do 19.05. 18:20171694 %1021
1021
963
Uml 2 (5)>= 10000Wolkig Cb (1100)
Leicht bewölkt (61)
 
HAHN
DE 494
Do 19.05. 17:50171694 %1021
1021
963
NNW 3 (9)
W - N
8000Stark bewölkt Cb (980)Regen-Schauer
HAHN
DE 494
Do 19.05. 17:20211778 %1020
1019
962
Uml 4 (12)>= 10000Wolkig Cb (1200) 
HAHN
DE 494
Do 19.05. 16:50251657 %1019
1017
961
SSW 3 (8) - 5 (18)
S - WSW
>= 10000Stark bewölkt Cb (1200)Regen-Schauer
HAHN
DE 494
Do 19.05. 16:20261654 %1019
1017
961
SW 4 (12)
S - W
>= 10000Leicht bewölkt (1500) 
HAHN
DE 494
Do 19.05. 15:50261654 %1019
1017
961
SW 3 (9)
S - W
>= 10000Nicht signifikant 
HAHN
DE 494
Do 19.05. 15:20261654 %1019
1017
961
SW 3 (10)
S - W
>= 10000Nicht signifikant 
HAHN
DE 494
Do 19.05. 14:50271651 %1020
1018
962
SW 4 (11)
S - W
>= 10000Leicht bewölkt (1500) 
HAHN
DE 494
Do 19.05. 14:20261654 %1020
1018
962
S 4 (11)
SSO - SSW
>= 10000Nicht signifikant 
HAHN
DE 494
Do 19.05. 13:50261654 %1020
1018
962
SSO 3 (10)
OSO - SSW
>= 10000Nicht signifikant 
HAHN
DE 494
Do 19.05. 13:20251657 %1020
1018
962
SSO 3 (7)
OSO - S
>= 10000Nicht signifikant 
HAHN
DE 494
Do 19.05. 12:50251554 %1020
1018
962
S 3 (8)
SO - SSW
>= 10000Nicht signifikant 
HAHN
DE 494
Do 19.05. 12:20251554 %1020
1018
962
SO 3 (9)
O - S
>= 10000Nicht signifikant 
HAHN
DE 494
Do 19.05. 11:50241557 %1020
1018
962
SSO 2 (6)
OSO - S
>= 10000Nicht signifikant 
HAHN
DE 494
Do 19.05. 11:20231561 %1020
1018
962
SO 4 (11) - 6 (21)>= 10000Nicht signifikant 
HAHN
DE 494
Do 19.05. 10:50211464 %1020
1019
962
OSO 2 (5)
ONO - S
>= 10000Nicht signifikant 
HAHN
DE 494
Do 19.05. 10:20211360 %1020
1019
962
SO 4 (12)>= 10000Nicht signifikant 
HAHN
DE 494
Do 19.05. 09:50201364 %1020
1019
962
OSO 3 (7)
O - SSO
>= 10000Nicht signifikant 
HAHN
DE 494
Do 19.05. 09:20191264 %1020
1019
962
SSO 4 (13)>= 10000Nicht signifikant 
HAHN
DE 494
Do 19.05. 08:50181268 %1020
1019
962
SO 4 (13)>= 10000Nicht signifikant 
HAHN
DE 494
Do 19.05. 08:20181268 %1020
1019
962
SO 4 (12)>= 10000Nicht signifikant 
HAHN
DE 494
Do 19.05. 07:50171272 %1020
1020
962
SO 4 (12)>= 10000Nicht signifikant 
HAHN
DE 494
Do 19.05. 07:20161172 %1020
1020
962
SO 4 (11)>= 10000Nicht signifikant 
HAHN
DE 494
Do 19.05. 06:50161172 %1020
1020
962
SO 4 (11)>= 10000Nicht signifikant 
HAHN
DE 494
Do 19.05. 06:20151177 %1020
1020
962
SO 3 (10)>= 10000Nicht signifikant 
HAHN
DE 494
Do 19.05. 05:50161172 %1020
1020
962
SO 3 (10)>= 10000Nicht signifikant 
HAHN
DE 494
Do 19.05. 05:20171168 %1020
1020
962
SO 4 (11)>= 10000Nicht signifikant 
HAHN
DE 494
Do 19.05. 04:50161172 %1020
1020
962
SSO 3 (10)>= 10000Nicht signifikant 
HAHN
DE 494
Do 19.05. 04:20161172 %1020
1020
962
SO 3 (9)>= 10000Nicht signifikant 
HAHN
DE 494
Do 19.05. 03:50171168 %1020
1020
962
SO 3 (9)>= 10000Nicht signifikant 
HAHN
DE 494
Do 19.05. 03:20171168 %1020
1020
962
SO 3 (9)>= 10000Nicht signifikant 
HAHN
DE 494
Do 19.05. 02:50171168 %1020
1020
962
SO 3 (9)>= 10000Nicht signifikant 
HAHN
DE 494
Do 19.05. 02:20171168 %1021
1021
963
SO 3 (9)>= 10000Nicht signifikant 
HAHN
DE 494
Do 19.05. 01:50171063 %1021
1021
963
SO 3 (9)>= 10000Nicht signifikant 
HAHN
DE 494
Do 19.05. 01:20181059 %1021
1020
963
SO 3 (8)>= 10000Nicht signifikant 
HAHN
DE 494
Do 19.05. 00:50191056 %1021
1020
963
SO 3 (9)>= 10000Nicht signifikant 
HAHN
DE 494
Do 19.05. 00:20191056 %1021
1020
963
SO 3 (8)>= 10000Nicht signifikant 
HAHN
DE 494
Mi 18.05. 23:50191056 %1021
1020
963
SO 3 (7)>= 10000Nicht signifikant 
HAHN
DE 494
Mi 18.05. 23:20191056 %1021
1020
963
Uml 1 (2)>= 10000Nicht signifikant 
HAHN
DE 494
Mi 18.05. 22:50191056 %1021
1020
963
SO 2 (6)>= 10000Nicht signifikant 
HAHN
DE 494
Mi 18.05. 22:20201053 %1021
1020
963
SO 2 (6)>= 10000Nicht signifikant 
HAHN
DE 494
Mi 18.05. 21:50211049 %1022
1021
964
OSO 3 (7)
O - S
>= 10000Nicht signifikant 
HAHN
DE 494
Mi 18.05. 21:20211049 %1021
1020
963
OSO 3 (7)>= 10000Nicht signifikant 
HAHN
DE 494
Mi 18.05. 20:50221150 %1021
1020
963
OSO 3 (7)
O - SO
>= 10000Nicht signifikant 
HAHN
DE 494
Mi 18.05. 20:20231147 %1021
1019
963
OSO 3 (7)>= 10000Nicht signifikant 
HAHN
DE 494
Mi 18.05. 19:50241144 %1021
1019
963
OSO 3 (7)>= 10000Nicht signifikant 
HAHN
DE 494
Mi 18.05. 19:20241144 %1021
1019
963
SO 3 (7)>= 10000Nicht signifikant 
HAHN
DE 494
Mi 18.05. 18:50251244 %1022
1020
964
OSO 3 (7)>= 10000Nicht signifikant 
HAHN
DE 494
Mi 18.05. 18:20251244 %1022
1020
964
SO 3 (8)
O - SSO
>= 10000Nicht signifikant 
HAHN
DE 494
Mi 18.05. 17:50251244 %1022
1020
964
SO 3 (7)>= 10000Nicht signifikant 
HAHN
DE 494
Mi 18.05. 17:20261242 %1022
1020
964
SO 3 (7)
ONO - S
>= 10000Nicht signifikant 
HAHN
DE 494
Mi 18.05. 16:50261139 %1022
1020
964
SO 2 (6)
O - SSW
>= 10000Nicht signifikant 
HAHN
DE 494
Mi 18.05. 16:20261139 %1022
1020
964
SSO 2 (6)
O - SSW
>= 10000Nicht signifikant 
HAHN
DE 494
Mi 18.05. 15:50251141 %1022
1020
964
Uml 2 (5)>= 10000Nicht signifikant 
HAHN
DE 494
Mi 18.05. 15:20251244 %1022
1020
964
SSO 2 (6)
OSO - SSW
>= 10000Nicht signifikant 
HAHN
DE 494
Mi 18.05. 14:50251244 %1023
1021
965
OSO 3 (10)
NNO - S
>= 10000Nicht signifikant 

Altimeter: Einstellung am Altimeter (Höhenmesser), die Höhe 0 muss auf diesen Luftdruckwert zeigen, damit das Gerät die Stationshöhe richtig anzeigt.

NN: Luftdruck reduziert auf "Normal Null", auf Meereshöhe, dieser von der Temperatur abhängige Wert wird bisweilen unkorrekt einfach als "Luftdruck" bezeichnet. Eigentlich nur eine fiktive Größe, die es erlaubt, Stationen auf unterschiedlichen Höhen miteinander zu vergleichen.

Station: Realer Luftdruck an der Station.